Flight Track Log - Related Links

Times and Time Zones

All times are in EDT time to prevent confusion due to time zone crossing. See the GJS6221 flight status page for this flight to view local times or setup timezone preferences in your user account.

Time Position Orientation Groundspeed Altitude Reporting Facility
EDT Latitude Longitude Course Direction KTS MPH feet Rate Location/Type
Fri 03:15:57 PM 40.7667 -73.8333 66° East 163 188 1,200  Level New York TRACON
Fri 03:16:57 PM 40.7833 -73.7833 66° East 219 252 3,400 2,300 Climbing New York TRACON
Fri 03:17:57 PM 40.8333 -73.7667 14° North 230 265 5,800 2,350 Climbing New York TRACON
Fri 03:18:57 PM 40.8833 -73.8000 333° Northwest 262 302 8,100 2,300 Climbing New York TRACON
Fri 03:19:57 PM 40.8333 -73.8667 225° Southwest 281 323 10,400 2,000 Climbing New York TRACON
Fri 03:20:57 PM 40.7667 -73.9000 201° Southwest 305 351 12,100 850 Climbing New York TRACON
Fri 03:21:57 PM 40.6667 -73.9333 194° South 341 392 12,100 -35 Level New York TRACON
Fri 03:23:50 PM 40.5567 -74.0872 227° Southwest 357 411 12,000 -35 Descending New York Center
Fri 03:24:50 PM 40.4931 -74.1958 232° Southwest 374 430 12,000 500 Level New York Center
Fri 03:25:50 PM 40.3897 -74.2425 199° South 362 417 13,000 1,220 Climbing New York Center
Fri 03:26:48 PM 40.2950 -74.2025 162° South 362 417 14,400 1,563 Climbing New York Center
Fri 03:27:49 PM 40.1744 -74.1911 176° South 393 452 16,100 1,537 Climbing New York Center
Fri 03:28:49 PM 40.0825 -74.2758 215° Southwest 383 441 17,500 1,463 Climbing New York Center
Fri 03:30:29 PM 39.9308 -74.4361 219° Southwest 412 474 20,000 1,388 Climbing Washington Center
Fri 03:31:29 PM 39.8525 -74.5239 221° Southwest 412 474 21,200 1,339 Climbing Washington Center
Fri 03:32:30 PM 39.7636 -74.6197 220° Southwest 418 481 22,700 1,388 Climbing Washington Center
Fri 03:33:30 PM 39.6728 -74.7153 219° Southwest 423 487 24,000 1,361 Climbing Washington Center
Fri 03:34:29 PM 39.5733 -74.7972 211° Southwest 428 493 25,400 1,210 Climbing Washington Center
Fri 03:35:29 PM 39.4653 -74.8603 204° Southwest 428 493 26,400 992 Climbing Washington Center
Fri 03:36:30 PM 39.3575 -74.9233 204° Southwest 428 493 27,400 1,240 Climbing Washington Center
Fri 03:37:30 PM 39.2472 -74.9886 205° Southwest 433 498 28,900 1,240 Climbing Washington Center
Fri 03:38:31 PM 39.1372 -75.0536 205° Southwest 433 498 29,900 555 Climbing Washington Center
Fri 03:39:29 PM 39.0250 -75.1214 205° Southwest 439 505 30,000 51 Climbing Washington Center
Fri 03:40:29 PM 38.9042 -75.1861 203° Southwest 450 518 30,000  Level Washington Center
Fri 03:41:30 PM 38.7814 -75.2614 206° Southwest 472 543 30,000  Level Washington Center
Fri 03:42:30 PM 38.6586 -75.3311 204° Southwest 478 550 30,000  Level Washington Center
Fri 03:43:31 PM 38.5378 -75.4058 206° Southwest 478 550 30,000  Level Washington Center
Fri 03:44:29 PM 38.4169 -75.4725 203° Southwest 478 550 30,000  Level Washington Center
Fri 03:45:29 PM 38.2878 -75.5600 208° Southwest 478 550 30,000  Level Washington Center
Fri 03:46:29 PM 38.1836 -75.6578 216° Southwest 478 550 30,000  Level Washington Center
Fri 03:47:30 PM 38.0792 -75.7581 217° Southwest 478 550 30,000  Level Washington Center
Fri 03:48:31 PM 37.9747 -75.8553 216° Southwest 473 544 30,000  Level Washington Center
Fri 03:49:29 PM 37.8703 -75.9547 217° Southwest 478 550 30,000  Level Washington Center
Fri 03:50:30 PM 37.7697 -76.0567 219° Southwest 478 550 30,000  Level Washington Center
Fri 03:51:29 PM 37.6650 -76.1558 217° Southwest 478 550 30,000  Level Washington Center
Fri 03:52:29 PM 37.5583 -76.2442 213° Southwest 478 550 30,000  Level Washington Center
Fri 03:53:30 PM 37.4533 -76.3400 216° Southwest 473 544 30,000  Level Washington Center
Fri 03:54:30 PM 37.3464 -76.4383 216° Southwest 473 544 30,000  Level Washington Center
Fri 03:55:31 PM 37.2414 -76.5311 215° Southwest 473 544 30,000  Level Washington Center
Fri 03:56:29 PM 37.1342 -76.6314 217° Southwest 473 544 30,000  Level Washington Center
Fri 03:57:30 PM 37.0289 -76.7261 216° Southwest 473 544 30,000  Level Washington Center
Fri 03:58:30 PM 36.9217 -76.8233 216° Southwest 478 550 30,000  Level Washington Center
Fri 03:59:31 PM 36.8142 -76.9228 217° Southwest 483 556 30,000  Level Washington Center
Fri 04:00:29 PM 36.7025 -77.0194 215° Southwest 483 556 30,000  Level Washington Center
Fri 04:01:30 PM 36.5969 -77.1236 218° Southwest 488 562 30,000  Level Washington Center
Fri 04:02:30 PM 36.4869 -77.2272 217° Southwest 488 562 30,000  Level Washington Center
Fri 04:03:31 PM 36.3792 -77.3283 217° Southwest 493 567 30,000  Level Washington Center
Fri 04:04:31 PM 36.2692 -77.4289 216° Southwest 493 567 30,000  Level Washington Center
Fri 04:05:29 PM 36.1611 -77.5344 218° Southwest 493 567 30,000  Level Washington Center
Fri 04:06:29 PM 36.0508 -77.6394 218° Southwest 498 573 30,000  Level Washington Center
Fri 04:07:29 PM 35.9386 -77.7367 215° Southwest 498 573 30,000  Level Washington Center
Fri 04:08:30 PM 35.8222 -77.8283 213° Southwest 498 573 30,000  Level Washington Center
Fri 04:09:29 PM 35.7058 -77.9172 212° Southwest 498 573 30,000  Level Washington Center
Fri 04:10:29 PM 35.5850 -78.0108 212° Southwest 509 586 30,000  Level Washington Center
Fri 04:11:30 PM 35.4661 -78.1042 213° Southwest 515 593 30,000  Level Washington Center
Fri 04:12:30 PM 35.3411 -78.1994 212° Southwest 521 600 30,000  Level Washington Center
Fri 04:13:31 PM 35.2200 -78.2947 213° Southwest 521 600 30,000  Level Washington Center
Fri 04:14:29 PM 35.0989 -78.3869 212° Southwest 521 600 30,000  Level Washington Center
Fri 04:15:29 PM 34.9778 -78.4817 213° Southwest 521 600 30,000  Level Washington Center
Fri 04:16:30 PM 34.8564 -78.5761 213° Southwest 521 600 30,000  Level Washington Center
Fri 04:18:46 PM 34.5831 -78.7822 212° Southwest 508 585 30,000  Level Jacksonville Center
Fri 04:19:46 PM 34.4653 -78.8783 214° Southwest 508 585 30,000  Level Jacksonville Center
Fri 04:20:46 PM 34.3469 -78.9669 212° Southwest 513 590 30,000  Level Jacksonville Center
Fri 04:21:46 PM 34.2308 -79.0600 214° Southwest 508 585 30,000  Level Jacksonville Center
Fri 04:22:46 PM 34.1236 -79.1700 220° Southwest 508 585 30,000  Level Jacksonville Center
Fri 04:23:46 PM 34.0183 -79.2797 221° Southwest 508 585 30,000  Level Jacksonville Center
Fri 04:24:46 PM 33.9150 -79.3867 221° Southwest 503 579 30,000  Level Jacksonville Center
Fri 04:25:46 PM 33.8197 -79.4878 221° Southwest 487 560 30,000 -350 Level Jacksonville Center
Fri 04:26:46 PM 33.7161 -79.5942 221° Southwest 487 560 29,300 -843 Descending Jacksonville Center
Fri 04:27:47 PM 33.6125 -79.7028 221° Southwest 495 570 28,300 -1,000 Descending Jacksonville Center
Fri 04:28:46 PM 33.5108 -79.8086 221° Southwest 495 570 27,300 -1,008 Descending Jacksonville Center
Fri 04:29:46 PM 33.4111 -79.9117 221° Southwest 490 564 26,300 -1,050 Descending Jacksonville Center
Fri 04:30:46 PM 33.3153 -80.0094 220° Southwest 479 551 25,200 -1,300 Descending Jacksonville Center
Fri 04:31:46 PM 33.2172 -80.1092 220° Southwest 472 543 23,700 -1,100 Descending Jacksonville Center
Fri 04:32:46 PM 33.1275 -80.2014 221° Southwest 472 543 23,000 -950 Descending Jacksonville Center
Fri 04:33:46 PM 33.0294 -80.3033 221° Southwest 483 556 21,800 -1,550 Descending Jacksonville Center
Fri 04:34:46 PM 32.9311 -80.4003 220° Southwest 470 541 19,900 -2,050 Descending Jacksonville Center
Fri 04:35:46 PM 32.8492 -80.4817 220° Southwest 431 496 17,700 -2,200 Descending Jacksonville Center
Fri 04:36:46 PM 32.7692 -80.5628 220° Southwest 401 461 15,500 -2,250 Descending Jacksonville Center
Fri 04:37:46 PM 32.6933 -80.6389 220° Southwest 375 432 13,200 -2,300 Descending Jacksonville Center
Fri 04:38:46 PM 32.6217 -80.7122 221° Southwest 363 418 10,900 -1,850 Descending Jacksonville Center
Fri 04:39:46 PM 32.5500 -80.7878 222° Southwest 341 392 9,500 -1,450 Descending Jacksonville Center
Fri 04:40:46 PM 32.4903 -80.8458 219° Southwest 287 330 8,000 -1,500 Descending Jacksonville Center
Fri 04:41:46 PM 32.4369 -80.8989 220° Southwest 274 315 6,500 -1,600 Descending Jacksonville Center
Fri 04:42:46 PM 32.3836 -80.9589 224° Southwest 279 321 4,800 -1,250 Descending Jacksonville Center
Fri 04:43:46 PM 32.3492 -81.0408 244° Southwest 257 296 4,000 -400 Descending Jacksonville Center
Fri 04:44:46 PM 32.3169 -81.1128 242° Southwest 249 287 4,000 -400 Level Jacksonville Center
Fri 04:45:46 PM 32.2867 -81.1872 244° Southwest 248 285 3,200 -1,000 Descending Jacksonville Center
Fri 04:46:46 PM 32.2603 -81.2514 244° Southwest 248 285 2,000 -1,200 Descending Jacksonville Center
Fri 04:48:00 PM 32.1276 -81.2021 270° West  Level Estimated
Fri 04:55:00 PM 32.1276 -81.2021 270° West  Level Estimated
Fri 04:56:00 PM 32.1276 -81.2021 270° West  Level Estimated
Fri 04:57:00 PM 32.1276 -81.2021 270° West  Level Estimated
Fri 04:58:00 PM 32.1276 -81.2021 270° West  Level Estimated
Fri 04:59:00 PM 32.1276 -81.2021 270° West  Level Estimated
Fri 05:00:00 PM 32.1276 -81.2021 270° West  Level Estimated

Login

Don't have an account? Register now (free) for customized features, flight alerts, and more!